Terminal Aerodrome Forecast
Issued by NWS Missoula, MT

Home | Current Version | Previous Version | Text Only | Print | Product List | Glossary On
Versions: 1 2 3 4 5 6 7 8 9 10 11 12 13 14 15
000
FTUS45 KMSO 301307 AAA
TAFMSO
TAF AMD
KMSO 301307Z 3013/0112 VRB03KT 5SM RA BR BKN007 OVC050
     FM301400 28008KT P6SM -SHRA BKN010 OVC045
     FM302100 28014G22KT P6SM VCSH BKN040 OVC080=

USA.gov is the U.S. government's official web portal to all federal, state and local government web resources and services.